Аэропорт: Сары-Арка. Караганда

ICAO: UAKK

METAR:
2018/11/19 10:00
UAKK 191000Z 21005MPS 9999 BKN020 M05/M09 Q1030 R23/450555 NOSIG RMK QFE725/0966
METAR:
2018/11/19 06:18
TAF UAKK 190500Z 1906/2006 20006MPS 9999 SCT015 BKN100 TXM05/1909Z TNM12/1924Z 
      TEMPO 1906/1912 VRB02MPS 5000 -SN SCT008 BKN020 
      TEMPO 1920/2004 2000 BR SCT005